PWSweather.com
Personal Weather Stations
Station Observations
AC5JC
Greenleaf Peninsula, Waco, Waco, TX 76710

Greenleaf Peninsula, WacoWaco, TX 76710

Lat: 31.565, Lon: -97.198

Elevation: 570

Station Type: Ambient WS-1400IP

http://ac5jc.dyndns.org

High Low Average
Temperature 92.8°F33.8°C 74.7°F23.7°C 83.6°F28.7°C
Dew Point 77.4°F25.2°C 57.5°F14.2°C 67.9°F19.9°C
Winds 15.0 mph 24.1 kmh 0.8 mph 1.3 kmh 5.0 mph SSE8.0 kmh SSE
Wind Gusts 24.8 mph39.9 kmh 2.5 mph4.0 kmh 11.0 mph17.7 kmh
Humidity 98% 33% 65%
Pressure 29.44 in997.0 mb 29.30 in992.2 mb -
Precipitation 0.00 in0.0 mm - -
Hour Temp Dew Point Humidity Winds Wind Gusts Pressure Precip Precip Rate Daily Precip Total
12:00 AM 74.8°F23.8°C 74.0°F23.3°C 97% 0.6 mph E1.0 kmh E 2.5 mph4.0 kmh 29.45 in997.3 mb 0.00 in0.0 mm 0.00 in0.0 mm 0.00 in0.0 mm
12:05 AM 75.0°F23.9°C 74.1°F23.4°C 97% 0.4 mph E0.6 kmh E 2.5 mph4.0 kmh 29.45 in997.3 mb 0.00 in0.0 mm 0.00 in0.0 mm 0.00 in0.0 mm
12:10 AM 75.0°F23.9°C 74.1°F23.4°C 97% 0.9 mph E1.4 kmh E 2.5 mph4.0 kmh 29.45 in997.3 mb 0.00 in0.0 mm 0.00 in0.0 mm 0.00 in0.0 mm
12:15 AM 75.0°F23.9°C 74.1°F23.4°C 97% 0.3 mph ESE0.5 kmh ESE 2.5 mph4.0 kmh 29.45 in997.3 mb 0.00 in0.0 mm 0.00 in0.0 mm 0.00 in0.0 mm
12:20 AM 75.0°F23.9°C 74.1°F23.4°C 97% 0.1 mph SE0.2 kmh SE 2.5 mph4.0 kmh 29.45 in997.3 mb 0.00 in0.0 mm 0.00 in0.0 mm 0.00 in0.0 mm
12:25 AM 75.2°F24.0°C 74.3°F23.5°C 97% 0.6 mph E1.0 kmh E 2.5 mph4.0 kmh 29.45 in997.3 mb 0.00 in0.0 mm 0.00 in0.0 mm 0.00 in0.0 mm
12:30 AM 75.2°F24.0°C 74.3°F23.5°C 97% 0.9 mph E1.4 kmh E 2.5 mph4.0 kmh 29.45 in997.3 mb 0.00 in0.0 mm 0.00 in0.0 mm 0.00 in0.0 mm
12:35 AM 75.2°F24.0°C 74.3°F23.5°C 97% 1.1 mph E1.8 kmh E 2.5 mph4.0 kmh 29.45 in997.3 mb 0.00 in0.0 mm 0.00 in0.0 mm 0.00 in0.0 mm
12:40 AM 75.2°F24.0°C 74.3°F23.5°C 97% 2.3 mph E3.7 kmh E 4.9 mph7.9 kmh 29.45 in997.3 mb 0.00 in0.0 mm 0.00 in0.0 mm 0.00 in0.0 mm
12:45 AM 75.2°F24.0°C 74.3°F23.5°C 97% 0.8 mph E1.3 kmh E 2.5 mph4.0 kmh 29.44 in997.0 mb 0.00 in0.0 mm 0.00 in0.0 mm 0.00 in0.0 mm
12:50 AM 75.2°F24.0°C 74.3°F23.5°C 97% 1.9 mph ESE3.1 kmh ESE 4.9 mph7.9 kmh 29.44 in997.0 mb 0.00 in0.0 mm 0.00 in0.0 mm 0.00 in0.0 mm
12:55 AM 75.2°F24.0°C 74.3°F23.5°C 97% 1.9 mph E3.1 kmh E 4.9 mph7.9 kmh 29.44 in997.0 mb 0.00 in0.0 mm 0.00 in0.0 mm 0.00 in0.0 mm
01:00 AM 75.2°F24.0°C 74.3°F23.5°C 97% 1.6 mph E2.6 kmh E 4.9 mph7.9 kmh 29.44 in997.0 mb 0.00 in0.0 mm 0.00 in0.0 mm 0.00 in0.0 mm
01:05 AM 75.2°F24.0°C 74.3°F23.5°C 97% 1.7 mph E2.7 kmh E 4.9 mph7.9 kmh 29.44 in997.0 mb 0.00 in0.0 mm 0.00 in0.0 mm 0.00 in0.0 mm
01:10 AM 75.2°F24.0°C 74.3°F23.5°C 97% 2.4 mph ESE3.9 kmh ESE 4.9 mph7.9 kmh 29.44 in997.0 mb 0.00 in0.0 mm 0.00 in0.0 mm 0.00 in0.0 mm
01:15 AM 75.2°F24.0°C 74.3°F23.5°C 97% 1.6 mph E2.6 kmh E 4.9 mph7.9 kmh 29.44 in997.0 mb 0.00 in0.0 mm 0.00 in0.0 mm 0.00 in0.0 mm
01:20 AM 75.2°F24.0°C 74.3°F23.5°C 97% 2.0 mph ESE3.2 kmh ESE 4.9 mph7.9 kmh 29.44 in997.0 mb 0.00 in0.0 mm 0.00 in0.0 mm 0.00 in0.0 mm
01:25 AM 75.2°F24.0°C 74.3°F23.5°C 97% 2.5 mph ESE4.0 kmh ESE 4.9 mph7.9 kmh 29.44 in997.0 mb 0.00 in0.0 mm 0.00 in0.0 mm 0.00 in0.0 mm
01:30 AM 75.2°F24.0°C 74.3°F23.5°C 97% 1.1 mph SE1.8 kmh SE 4.9 mph7.9 kmh 29.44 in997.0 mb 0.00 in0.0 mm 0.00 in0.0 mm 0.00 in0.0 mm
01:35 AM 75.2°F24.0°C 74.3°F23.5°C 97% 2.9 mph SE4.7 kmh SE 7.4 mph11.9 kmh 29.44 in997.0 mb 0.00 in0.0 mm 0.00 in0.0 mm 0.00 in0.0 mm
01:40 AM 75.2°F24.0°C 74.3°F23.5°C 97% 1.7 mph E2.7 kmh E 4.9 mph7.9 kmh 29.44 in997.0 mb 0.00 in0.0 mm 0.00 in0.0 mm 0.00 in0.0 mm
01:45 AM 75.2°F24.0°C 74.3°F23.5°C 97% 3.1 mph SSE5.0 kmh SSE 4.9 mph7.9 kmh 29.44 in997.0 mb 0.00 in0.0 mm 0.00 in0.0 mm 0.00 in0.0 mm
01:50 AM 75.1°F23.9°C 74.3°F23.5°C 97% 3.4 mph E5.5 kmh E 7.4 mph11.9 kmh 29.44 in997.0 mb 0.00 in0.0 mm 0.00 in0.0 mm 0.00 in0.0 mm
01:55 AM 75.0°F23.9°C 74.4°F23.6°C 98% 3.2 mph ESE5.1 kmh ESE 4.9 mph7.9 kmh 29.44 in997.0 mb 0.00 in0.0 mm 0.00 in0.0 mm 0.00 in0.0 mm
02:00 AM 75.0°F23.9°C 74.4°F23.6°C 98% 3.4 mph ESE5.5 kmh ESE 7.4 mph11.9 kmh 29.44 in997.0 mb 0.00 in0.0 mm 0.00 in0.0 mm 0.00 in0.0 mm
02:05 AM 74.9°F23.8°C 74.3°F23.5°C 98% 3.6 mph ESE5.8 kmh ESE 7.4 mph11.9 kmh 29.44 in997.0 mb 0.00 in0.0 mm 0.00 in0.0 mm 0.00 in0.0 mm
02:10 AM 74.8°F23.8°C 74.2°F23.4°C 98% 2.8 mph SE4.5 kmh SE 7.4 mph11.9 kmh 29.44 in997.0 mb 0.00 in0.0 mm 0.00 in0.0 mm 0.00 in0.0 mm
02:15 AM 74.8°F23.8°C 74.2°F23.4°C 98% 3.2 mph ESE5.1 kmh ESE 9.8 mph15.8 kmh 29.44 in997.0 mb 0.00 in0.0 mm 0.00 in0.0 mm 0.00 in0.0 mm
02:20 AM 74.8°F23.8°C 74.2°F23.4°C 98% 2.8 mph SE4.5 kmh SE 4.9 mph7.9 kmh 29.44 in997.0 mb 0.00 in0.0 mm 0.00 in0.0 mm 0.00 in0.0 mm
02:25 AM 74.8°F23.8°C 74.2°F23.4°C 98% 3.6 mph SE5.8 kmh SE 4.9 mph7.9 kmh 29.44 in997.0 mb 0.00 in0.0 mm 0.00 in0.0 mm 0.00 in0.0 mm
02:30 AM 74.8°F23.8°C 74.2°F23.4°C 98% 3.3 mph ESE5.3 kmh ESE 7.4 mph11.9 kmh 29.44 in997.0 mb 0.00 in0.0 mm 0.00 in0.0 mm 0.00 in0.0 mm
02:35 AM 74.8°F23.8°C 74.2°F23.4°C 98% 2.7 mph ESE4.3 kmh ESE 7.4 mph11.9 kmh 29.44 in997.0 mb 0.00 in0.0 mm 0.00 in0.0 mm 0.00 in0.0 mm
02:40 AM 74.7°F23.7°C 74.1°F23.4°C 98% 4.1 mph SE6.6 kmh SE 7.4 mph11.9 kmh 29.44 in997.0 mb 0.00 in0.0 mm 0.00 in0.0 mm 0.00 in0.0 mm
02:45 AM 74.7°F23.7°C 74.1°F23.4°C 98% 2.8 mph ESE4.5 kmh ESE 4.9 mph7.9 kmh 29.44 in997.0 mb 0.00 in0.0 mm 0.00 in0.0 mm 0.00 in0.0 mm
02:50 AM 74.7°F23.7°C 74.1°F23.4°C 98% 3.1 mph E5.0 kmh E 7.4 mph11.9 kmh 29.44 in997.0 mb 0.00 in0.0 mm 0.00 in0.0 mm 0.00 in0.0 mm
02:55 AM 74.7°F23.7°C 74.1°F23.4°C 98% 4.1 mph SE6.6 kmh SE 7.4 mph11.9 kmh 29.44 in997.0 mb 0.00 in0.0 mm 0.00 in0.0 mm 0.00 in0.0 mm
03:00 AM 74.7°F23.7°C 74.1°F23.4°C 98% 3.7 mph E6.0 kmh E 7.4 mph11.9 kmh 29.44 in997.0 mb 0.00 in0.0 mm 0.00 in0.0 mm 0.00 in0.0 mm
03:05 AM 74.7°F23.7°C 74.1°F23.4°C 98% 3.8 mph ESE6.1 kmh ESE 7.4 mph11.9 kmh 29.44 in997.0 mb 0.00 in0.0 mm 0.00 in0.0 mm 0.00 in0.0 mm
03:10 AM 74.7°F23.7°C 74.1°F23.4°C 98% 3.7 mph SE6.0 kmh SE 7.4 mph11.9 kmh 29.43 in996.6 mb 0.00 in0.0 mm 0.00 in0.0 mm 0.00 in0.0 mm
03:15 AM 74.7°F23.7°C 74.1°F23.4°C 98% 3.4 mph ESE5.5 kmh ESE 7.4 mph11.9 kmh 29.43 in996.6 mb 0.00 in0.0 mm 0.00 in0.0 mm 0.00 in0.0 mm
03:20 AM 74.7°F23.7°C 74.1°F23.4°C 98% 3.1 mph SE5.0 kmh SE 7.4 mph11.9 kmh 29.43 in996.6 mb 0.00 in0.0 mm 0.00 in0.0 mm 0.00 in0.0 mm
03:25 AM 74.7°F23.7°C 74.1°F23.4°C 98% 3.5 mph SE5.6 kmh SE 7.4 mph11.9 kmh 29.43 in996.6 mb 0.00 in0.0 mm 0.00 in0.0 mm 0.00 in0.0 mm
03:30 AM 74.7°F23.7°C 74.1°F23.4°C 98% 3.6 mph ESE5.8 kmh ESE 7.4 mph11.9 kmh 29.43 in996.6 mb 0.00 in0.0 mm 0.00 in0.0 mm 0.00 in0.0 mm
03:35 AM 74.7°F23.7°C 74.1°F23.4°C 98% 2.7 mph SE4.3 kmh SE 4.9 mph7.9 kmh 29.43 in996.6 mb 0.00 in0.0 mm 0.00 in0.0 mm 0.00 in0.0 mm
03:40 AM 74.7°F23.7°C 74.1°F23.4°C 98% 4.5 mph SE7.2 kmh SE 7.4 mph11.9 kmh 29.43 in996.6 mb 0.00 in0.0 mm 0.00 in0.0 mm 0.00 in0.0 mm
03:45 AM 74.7°F23.7°C 74.1°F23.4°C 98% 2.9 mph ESE4.7 kmh ESE 4.9 mph7.9 kmh 29.43 in996.6 mb 0.00 in0.0 mm 0.00 in0.0 mm 0.00 in0.0 mm
03:50 AM 74.8°F23.8°C 74.2°F23.4°C 98% 2.9 mph SSE4.7 kmh SSE 7.4 mph11.9 kmh 29.43 in996.6 mb 0.00 in0.0 mm 0.00 in0.0 mm 0.00 in0.0 mm
03:55 AM 74.8°F23.8°C 74.2°F23.4°C 98% 4.3 mph SE6.9 kmh SE 7.4 mph11.9 kmh 29.43 in996.6 mb 0.00 in0.0 mm 0.00 in0.0 mm 0.00 in0.0 mm
04:00 AM 74.8°F23.8°C 74.2°F23.4°C 98% 3.7 mph SE6.0 kmh SE 7.4 mph11.9 kmh 29.43 in996.6 mb 0.00 in0.0 mm 0.00 in0.0 mm 0.00 in0.0 mm
04:05 AM 74.8°F23.8°C 74.2°F23.4°C 98% 3.1 mph E5.0 kmh E 4.9 mph7.9 kmh 29.43 in996.6 mb 0.00 in0.0 mm 0.00 in0.0 mm 0.00 in0.0 mm
04:10 AM 74.8°F23.8°C 74.2°F23.4°C 98% 3.1 mph SE5.0 kmh SE 7.4 mph11.9 kmh 29.43 in996.6 mb 0.00 in0.0 mm 0.00 in0.0 mm 0.00 in0.0 mm
04:15 AM 74.8°F23.8°C 74.2°F23.4°C 98% 2.9 mph SE4.7 kmh SE 7.4 mph11.9 kmh 29.43 in996.6 mb 0.00 in0.0 mm 0.00 in0.0 mm 0.00 in0.0 mm
04:20 AM 74.8°F23.8°C 74.2°F23.4°C 98% 3.8 mph SE6.1 kmh SE 7.4 mph11.9 kmh 29.42 in996.3 mb 0.00 in0.0 mm 0.00 in0.0 mm 0.00 in0.0 mm
04:25 AM 74.8°F23.8°C 74.1°F23.4°C 98% 3.7 mph SSE6.0 kmh SSE 7.4 mph11.9 kmh 29.43 in996.6 mb 0.00 in0.0 mm 0.00 in0.0 mm 0.00 in0.0 mm
04:30 AM 75.0°F23.9°C 74.1°F23.4°C 97% 5.0 mph SE8.0 kmh SE 9.8 mph15.8 kmh 29.43 in996.6 mb 0.00 in0.0 mm 0.00 in0.0 mm 0.00 in0.0 mm
04:35 AM 75.0°F23.9°C 74.1°F23.4°C 97% 2.4 mph SE3.9 kmh SE 4.9 mph7.9 kmh 29.42 in996.3 mb 0.00 in0.0 mm 0.00 in0.0 mm 0.00 in0.0 mm
04:40 AM 75.0°F23.9°C 74.1°F23.4°C 97% 4.3 mph SE6.9 kmh SE 7.4 mph11.9 kmh 29.42 in996.3 mb 0.00 in0.0 mm 0.00 in0.0 mm 0.00 in0.0 mm
04:45 AM 75.0°F23.9°C 74.1°F23.4°C 97% 3.5 mph SE5.6 kmh SE 7.4 mph11.9 kmh 29.42 in996.3 mb 0.00 in0.0 mm 0.00 in0.0 mm 0.00 in0.0 mm
04:50 AM 75.2°F24.0°C 74.3°F23.5°C 97% 3.5 mph SE5.6 kmh SE 7.4 mph11.9 kmh 29.42 in996.3 mb 0.00 in0.0 mm 0.00 in0.0 mm 0.00 in0.0 mm
04:55 AM 75.2°F24.0°C 74.3°F23.5°C 97% 3.0 mph SE4.8 kmh SE 4.9 mph7.9 kmh 29.42 in996.3 mb 0.00 in0.0 mm 0.00 in0.0 mm 0.00 in0.0 mm
05:00 AM 75.2°F24.0°C 74.3°F23.5°C 97% 2.5 mph ESE4.0 kmh ESE 4.9 mph7.9 kmh 29.42 in996.3 mb 0.00 in0.0 mm 0.00 in0.0 mm 0.00 in0.0 mm
05:05 AM 75.2°F24.0°C 74.3°F23.5°C 97% 4.4 mph E7.1 kmh E 7.4 mph11.9 kmh 29.42 in996.3 mb 0.00 in0.0 mm 0.00 in0.0 mm 0.00 in0.0 mm
05:10 AM 75.4°F24.1°C 74.5°F23.6°C 97% 2.3 mph SSE3.7 kmh SSE 4.9 mph7.9 kmh 29.42 in996.3 mb 0.00 in0.0 mm 0.00 in0.0 mm 0.00 in0.0 mm
05:15 AM 75.4°F24.1°C 74.5°F23.6°C 97% 2.3 mph SE3.7 kmh SE 4.9 mph7.9 kmh 29.41 in995.9 mb 0.00 in0.0 mm 0.00 in0.0 mm 0.00 in0.0 mm
05:20 AM 75.4°F24.1°C 74.5°F23.6°C 97% 2.7 mph SE4.3 kmh SE 7.4 mph11.9 kmh 29.41 in995.9 mb 0.00 in0.0 mm 0.00 in0.0 mm 0.00 in0.0 mm
05:25 AM 75.4°F24.1°C 74.5°F23.6°C 97% 3.4 mph SE5.5 kmh SE 7.4 mph11.9 kmh 29.41 in995.9 mb 0.00 in0.0 mm 0.00 in0.0 mm 0.00 in0.0 mm
05:30 AM 75.6°F24.2°C 74.7°F23.7°C 97% 2.4 mph ESE3.9 kmh ESE 7.4 mph11.9 kmh 29.42 in996.3 mb 0.00 in0.0 mm 0.00 in0.0 mm 0.00 in0.0 mm
05:35 AM 75.6°F24.2°C 74.7°F23.7°C 97% 3.0 mph SE4.8 kmh SE 7.4 mph11.9 kmh 29.42 in996.3 mb 0.00 in0.0 mm 0.00 in0.0 mm 0.00 in0.0 mm
05:40 AM 75.6°F24.2°C 74.7°F23.7°C 97% 2.7 mph SE4.3 kmh SE 4.9 mph7.9 kmh 29.42 in996.3 mb 0.00 in0.0 mm 0.00 in0.0 mm 0.00 in0.0 mm
05:45 AM 75.6°F24.2°C 74.7°F23.7°C 97% 2.0 mph ESE3.2 kmh ESE 4.9 mph7.9 kmh 29.42 in996.3 mb 0.00 in0.0 mm 0.00 in0.0 mm 0.00 in0.0 mm
05:50 AM 75.7°F24.3°C 74.8°F23.8°C 97% 2.7 mph SE4.3 kmh SE 4.9 mph7.9 kmh 29.41 in995.9 mb 0.00 in0.0 mm 0.00 in0.0 mm 0.00 in0.0 mm
05:55 AM 75.7°F24.3°C 74.8°F23.8°C 97% 4.5 mph SE7.2 kmh SE 12.3 mph19.8 kmh 29.42 in996.3 mb 0.00 in0.0 mm 0.00 in0.0 mm 0.00 in0.0 mm
06:00 AM 75.7°F24.3°C 74.8°F23.8°C 97% 2.2 mph ESE3.5 kmh ESE 4.9 mph7.9 kmh 29.43 in996.6 mb 0.00 in0.0 mm 0.00 in0.0 mm 0.00 in0.0 mm
06:05 AM 75.8°F24.3°C 74.9°F23.8°C 97% 2.0 mph SE3.2 kmh SE 4.9 mph7.9 kmh 29.42 in996.3 mb 0.00 in0.0 mm 0.00 in0.0 mm 0.00 in0.0 mm
06:10 AM 76.1°F24.5°C 75.2°F24.0°C 97% 2.4 mph SSE3.9 kmh SSE 4.9 mph7.9 kmh 29.42 in996.3 mb 0.00 in0.0 mm 0.00 in0.0 mm 0.00 in0.0 mm
06:15 AM 76.1°F24.5°C 75.2°F24.0°C 97% 2.5 mph SSE4.0 kmh SSE 4.9 mph7.9 kmh 29.42 in996.3 mb 0.00 in0.0 mm 0.00 in0.0 mm 0.00 in0.0 mm
06:20 AM 76.1°F24.5°C 75.2°F24.0°C 97% 2.3 mph SSE3.7 kmh SSE 4.9 mph7.9 kmh 29.42 in996.3 mb 0.00 in0.0 mm 0.00 in0.0 mm 0.00 in0.0 mm
06:25 AM 76.1°F24.5°C 75.2°F24.0°C 97% 1.9 mph SE3.1 kmh SE 4.9 mph7.9 kmh 29.43 in996.6 mb 0.00 in0.0 mm 0.00 in0.0 mm 0.00 in0.0 mm
06:30 AM 76.3°F24.6°C 75.4°F24.1°C 97% 2.4 mph SE3.9 kmh SE 4.9 mph7.9 kmh 29.42 in996.3 mb 0.00 in0.0 mm 0.00 in0.0 mm 0.00 in0.0 mm
06:35 AM 76.3°F24.6°C 75.4°F24.1°C 97% 1.1 mph SE1.8 kmh SE 2.5 mph4.0 kmh 29.42 in996.3 mb 0.00 in0.0 mm 0.00 in0.0 mm 0.00 in0.0 mm
06:40 AM 76.3°F24.6°C 75.4°F24.1°C 97% 1.1 mph ESE1.8 kmh ESE 2.5 mph4.0 kmh 29.42 in996.3 mb 0.00 in0.0 mm 0.00 in0.0 mm 0.00 in0.0 mm
06:45 AM 76.3°F24.6°C 75.4°F24.1°C 97% 1.1 mph ESE1.8 kmh ESE 2.5 mph4.0 kmh 29.43 in996.6 mb 0.00 in0.0 mm 0.00 in0.0 mm 0.00 in0.0 mm
06:50 AM 76.5°F24.7°C 75.6°F24.2°C 97% 2.8 mph E4.5 kmh E 7.4 mph11.9 kmh 29.43 in996.6 mb 0.00 in0.0 mm 0.00 in0.0 mm 0.00 in0.0 mm
06:55 AM 76.5°F24.7°C 75.6°F24.2°C 97% 1.5 mph SSE2.4 kmh SSE 2.5 mph4.0 kmh 29.42 in996.3 mb 0.00 in0.0 mm 0.00 in0.0 mm 0.00 in0.0 mm
07:00 AM 76.5°F24.7°C 75.6°F24.2°C 97% 1.8 mph ESE2.9 kmh ESE 4.9 mph7.9 kmh 29.43 in996.6 mb 0.00 in0.0 mm 0.00 in0.0 mm 0.00 in0.0 mm
07:05 AM 76.5°F24.7°C 75.6°F24.2°C 97% 1.6 mph S2.6 kmh S 4.9 mph7.9 kmh 29.43 in996.6 mb 0.00 in0.0 mm 0.00 in0.0 mm 0.00 in0.0 mm
07:10 AM 76.6°F24.8°C 75.7°F24.3°C 97% 1.0 mph E1.6 kmh E 4.9 mph7.9 kmh 29.43 in996.6 mb 0.00 in0.0 mm 0.00 in0.0 mm 0.00 in0.0 mm
07:15 AM 76.6°F24.8°C 75.5°F24.2°C 96% 2.4 mph SE3.9 kmh SE 7.4 mph11.9 kmh 29.43 in996.6 mb 0.00 in0.0 mm 0.00 in0.0 mm 0.00 in0.0 mm
07:20 AM 76.6°F24.8°C 75.4°F24.1°C 96% 2.1 mph SSE3.4 kmh SSE 4.9 mph7.9 kmh 29.43 in996.6 mb 0.00 in0.0 mm 0.00 in0.0 mm 0.00 in0.0 mm
07:25 AM 76.6°F24.8°C 75.4°F24.1°C 96% 0.8 mph SE1.3 kmh SE 2.5 mph4.0 kmh 29.43 in996.6 mb 0.00 in0.0 mm 0.00 in0.0 mm 0.00 in0.0 mm
07:30 AM 77.2°F25.1°C 76.0°F24.4°C 96% 4.1 mph SSE6.6 kmh SSE 7.4 mph11.9 kmh 29.43 in996.6 mb 0.00 in0.0 mm 0.00 in0.0 mm 0.00 in0.0 mm
07:35 AM 77.2°F25.1°C 76.0°F24.4°C 96% 3.2 mph SE5.1 kmh SE 7.4 mph11.9 kmh 29.42 in996.3 mb 0.00 in0.0 mm 0.00 in0.0 mm 0.00 in0.0 mm
07:40 AM 77.2°F25.1°C 76.0°F24.4°C 96% 3.5 mph SSE5.6 kmh SSE 7.4 mph11.9 kmh 29.43 in996.6 mb 0.00 in0.0 mm 0.00 in0.0 mm 0.00 in0.0 mm
07:45 AM 77.2°F25.1°C 76.0°F24.4°C 96% 1.0 mph S1.6 kmh S 4.9 mph7.9 kmh 29.44 in997.0 mb 0.00 in0.0 mm 0.00 in0.0 mm 0.00 in0.0 mm
07:50 AM 77.2°F25.1°C 76.0°F24.4°C 96% 3.7 mph SE6.0 kmh SE 4.9 mph7.9 kmh 29.43 in996.6 mb 0.00 in0.0 mm 0.00 in0.0 mm 0.00 in0.0 mm
07:55 AM 77.2°F25.1°C 76.0°F24.4°C 96% 2.1 mph S3.4 kmh S 9.8 mph15.8 kmh 29.43 in996.6 mb 0.00 in0.0 mm 0.00 in0.0 mm 0.00 in0.0 mm
08:00 AM 77.2°F25.1°C 76.0°F24.4°C 96% 3.1 mph S5.0 kmh S 7.4 mph11.9 kmh 29.44 in997.0 mb 0.00 in0.0 mm 0.00 in0.0 mm 0.00 in0.0 mm
08:05 AM 77.2°F25.1°C 76.0°F24.4°C 96% 3.0 mph SSE4.8 kmh SSE 4.9 mph7.9 kmh 29.43 in996.6 mb 0.00 in0.0 mm 0.00 in0.0 mm 0.00 in0.0 mm
08:10 AM 77.2°F25.1°C 76.0°F24.4°C 96% 3.4 mph SE5.5 kmh SE 7.4 mph11.9 kmh 29.44 in997.0 mb 0.00 in0.0 mm 0.00 in0.0 mm 0.00 in0.0 mm
08:15 AM 77.2°F25.1°C 76.0°F24.4°C 96% 2.6 mph S4.2 kmh S 4.9 mph7.9 kmh 29.43 in996.6 mb 0.00 in0.0 mm 0.00 in0.0 mm 0.00 in0.0 mm
08:20 AM 77.2°F25.1°C 76.0°F24.4°C 96% 1.2 mph SW1.9 kmh SW 4.9 mph7.9 kmh 29.43 in996.6 mb 0.00 in0.0 mm 0.00 in0.0 mm 0.00 in0.0 mm
08:25 AM 77.3°F25.2°C 76.0°F24.4°C 96% 3.5 mph SE5.6 kmh SE 7.4 mph11.9 kmh 29.43 in996.6 mb 0.00 in0.0 mm 0.00 in0.0 mm 0.00 in0.0 mm
08:30 AM 78.1°F25.6°C 76.9°F24.9°C 96% 1.2 mph S1.9 kmh S 7.4 mph11.9 kmh 29.43 in996.6 mb 0.00 in0.0 mm 0.00 in0.0 mm 0.00 in0.0 mm
08:35 AM 78.6°F25.9°C 77.4°F25.2°C 96% 3.7 mph SSE6.0 kmh SSE 9.8 mph15.8 kmh 29.43 in996.6 mb 0.00 in0.0 mm 0.00 in0.0 mm 0.00 in0.0 mm
08:40 AM 78.6°F25.9°C 77.4°F25.2°C 96% 2.8 mph S4.5 kmh S 7.4 mph11.9 kmh 29.43 in996.6 mb 0.00 in0.0 mm 0.00 in0.0 mm 0.00 in0.0 mm
08:45 AM 78.6°F25.9°C 77.4°F25.2°C 96% 2.8 mph S4.5 kmh S 4.9 mph7.9 kmh 29.43 in996.6 mb 0.00 in0.0 mm 0.00 in0.0 mm 0.00 in0.0 mm
08:50 AM 78.6°F25.9°C 77.4°F25.2°C 96% 2.7 mph SSE4.3 kmh SSE 7.4 mph11.9 kmh 29.44 in997.0 mb 0.00 in0.0 mm 0.00 in0.0 mm 0.00 in0.0 mm
08:55 AM 78.6°F25.9°C 77.4°F25.2°C 96% 2.2 mph SSW3.5 kmh SSW 7.4 mph11.9 kmh 29.43 in996.6 mb 0.00 in0.0 mm 0.00 in0.0 mm 0.00 in0.0 mm
09:00 AM 78.6°F25.9°C 77.3°F25.2°C 96% 4.8 mph S7.7 kmh S 9.8 mph15.8 kmh 29.44 in997.0 mb 0.00 in0.0 mm 0.00 in0.0 mm 0.00 in0.0 mm
09:05 AM 78.6°F25.9°C 77.0°F25.0°C 95% 3.1 mph S5.0 kmh S 9.8 mph15.8 kmh 29.44 in997.0 mb 0.00 in0.0 mm 0.00 in0.0 mm 0.00 in0.0 mm
09:10 AM 78.9°F26.1°C 77.2°F25.1°C 94% 5.6 mph SE9.0 kmh SE 9.8 mph15.8 kmh 29.44 in997.0 mb 0.00 in0.0 mm 0.00 in0.0 mm 0.00 in0.0 mm
09:15 AM 79.2°F26.2°C 77.3°F25.2°C 94% 4.5 mph SSE7.2 kmh SSE 7.4 mph11.9 kmh 29.44 in997.0 mb 0.00 in0.0 mm 0.00 in0.0 mm 0.00 in0.0 mm
09:20 AM 79.2°F26.2°C 77.3°F25.2°C 94% 4.6 mph SSE7.4 kmh SSE 9.8 mph15.8 kmh 29.44 in997.0 mb 0.00 in0.0 mm 0.00 in0.0 mm 0.00 in0.0 mm
09:25 AM 79.2°F26.2°C 77.0°F25.0°C 93% 4.7 mph SW7.6 kmh SW 12.3 mph19.8 kmh 29.44 in997.0 mb 0.00 in0.0 mm 0.00 in0.0 mm 0.00 in0.0 mm
09:30 AM 79.4°F26.3°C 77.0°F25.0°C 93% 6.3 mph S10.1 kmh S 9.8 mph15.8 kmh 29.44 in997.0 mb 0.00 in0.0 mm 0.00 in0.0 mm 0.00 in0.0 mm
09:35 AM 79.7°F26.5°C 77.1°F25.1°C 92% 3.3 mph SSE5.3 kmh SSE 4.9 mph7.9 kmh 29.44 in997.0 mb 0.00 in0.0 mm 0.00 in0.0 mm 0.00 in0.0 mm
09:40 AM 79.7°F26.5°C 76.8°F24.9°C 91% 3.9 mph SE6.3 kmh SE 9.8 mph15.8 kmh 29.43 in996.6 mb 0.00 in0.0 mm 0.00 in0.0 mm 0.00 in0.0 mm
09:45 AM 79.7°F26.5°C 76.3°F24.6°C 89% 5.2 mph S8.4 kmh S 9.8 mph15.8 kmh 29.44 in997.0 mb 0.00 in0.0 mm 0.00 in0.0 mm 0.00 in0.0 mm
09:50 AM 80.1°F26.7°C 75.9°F24.4°C 87% 3.7 mph SSE6.0 kmh SSE 12.3 mph19.8 kmh 29.44 in997.0 mb 0.00 in0.0 mm 0.00 in0.0 mm 0.00 in0.0 mm
09:55 AM 80.6°F27.0°C 75.2°F24.0°C 84% 5.6 mph S9.0 kmh S 9.8 mph15.8 kmh 29.44 in997.0 mb 0.00 in0.0 mm 0.00 in0.0 mm 0.00 in0.0 mm
10:00 AM 80.7°F27.1°C 74.6°F23.7°C 82% 7.8 mph SSE12.6 kmh SSE 9.8 mph15.8 kmh 29.44 in997.0 mb 0.00 in0.0 mm 0.00 in0.0 mm 0.00 in0.0 mm
10:05 AM 80.7°F27.1°C 74.1°F23.4°C 81% 8.0 mph SSE12.9 kmh SSE 19.9 mph32.0 kmh 29.44 in997.0 mb 0.00 in0.0 mm 0.00 in0.0 mm 0.00 in0.0 mm
10:10 AM 80.9°F27.2°C 73.8°F23.2°C 79% 9.8 mph SSE15.8 kmh SSE 19.9 mph32.0 kmh 29.44 in997.0 mb 0.00 in0.0 mm 0.00 in0.0 mm 0.00 in0.0 mm
10:15 AM 81.1°F27.3°C 73.9°F23.3°C 79% 8.9 mph SSE14.3 kmh SSE 15.0 mph24.1 kmh 29.44 in997.0 mb 0.00 in0.0 mm 0.00 in0.0 mm 0.00 in0.0 mm
10:20 AM 81.3°F27.4°C 72.9°F22.7°C 76% 8.3 mph S13.4 kmh S 15.0 mph24.1 kmh 29.44 in997.0 mb 0.00 in0.0 mm 0.00 in0.0 mm 0.00 in0.0 mm
10:25 AM 81.5°F27.5°C 72.7°F22.6°C 75% 4.0 mph S6.4 kmh S 7.4 mph11.9 kmh 29.44 in997.0 mb 0.00 in0.0 mm 0.00 in0.0 mm 0.00 in0.0 mm
10:30 AM 82.0°F27.8°C 72.5°F22.5°C 73% 8.8 mph SSE14.2 kmh SSE 17.4 mph28.0 kmh 29.44 in997.0 mb 0.00 in0.0 mm 0.00 in0.0 mm 0.00 in0.0 mm
10:35 AM 82.8°F28.2°C 73.1°F22.8°C 73% 8.5 mph SSE13.7 kmh SSE 15.0 mph24.1 kmh 29.44 in997.0 mb 0.00 in0.0 mm 0.00 in0.0 mm 0.00 in0.0 mm
10:40 AM 82.8°F28.2°C 72.9°F22.7°C 72% 3.3 mph S5.3 kmh S 7.4 mph11.9 kmh 29.44 in997.0 mb 0.00 in0.0 mm 0.00 in0.0 mm 0.00 in0.0 mm
10:45 AM 82.9°F28.3°C 72.4°F22.4°C 71% 6.3 mph SSE10.1 kmh SSE 15.0 mph24.1 kmh 29.44 in997.0 mb 0.00 in0.0 mm 0.00 in0.0 mm 0.00 in0.0 mm
10:50 AM 83.1°F28.4°C 72.9°F22.7°C 72% 9.0 mph SSE14.5 kmh SSE 15.0 mph24.1 kmh 29.44 in997.0 mb 0.00 in0.0 mm 0.00 in0.0 mm 0.00 in0.0 mm
10:55 AM 83.3°F28.5°C 72.5°F22.5°C 70% 9.9 mph SSE15.9 kmh SSE 15.0 mph24.1 kmh 29.44 in997.0 mb 0.00 in0.0 mm 0.00 in0.0 mm 0.00 in0.0 mm
11:00 AM 83.5°F28.6°C 71.8°F22.1°C 68% 8.4 mph SSE13.5 kmh SSE 17.4 mph28.0 kmh 29.44 in997.0 mb 0.00 in0.0 mm 0.00 in0.0 mm 0.00 in0.0 mm
11:05 AM 83.5°F28.6°C 70.9°F21.6°C 66% 5.2 mph S8.4 kmh S 7.4 mph11.9 kmh 29.44 in997.0 mb 0.00 in0.0 mm 0.00 in0.0 mm 0.00 in0.0 mm
11:10 AM 83.7°F28.7°C 70.7°F21.5°C 65% 3.1 mph S5.0 kmh S 4.9 mph7.9 kmh 29.43 in996.6 mb 0.00 in0.0 mm 0.00 in0.0 mm 0.00 in0.0 mm
11:15 AM 85.1°F29.5°C 71.6°F22.0°C 64% 7.3 mph S11.7 kmh S 15.0 mph24.1 kmh 29.43 in996.6 mb 0.00 in0.0 mm 0.00 in0.0 mm 0.00 in0.0 mm
11:20 AM 85.1°F29.5°C 71.2°F21.8°C 63% 7.7 mph SE12.4 kmh SE 15.0 mph24.1 kmh 29.43 in996.6 mb 0.00 in0.0 mm 0.00 in0.0 mm 0.00 in0.0 mm
11:25 AM 85.0°F29.4°C 71.3°F21.8°C 64% 9.3 mph S15.0 kmh S 17.4 mph28.0 kmh 29.43 in996.6 mb 0.00 in0.0 mm 0.00 in0.0 mm 0.00 in0.0 mm
11:30 AM 85.0°F29.4°C 71.1°F21.7°C 63% 7.3 mph S11.7 kmh S 12.3 mph19.8 kmh 29.43 in996.6 mb 0.00 in0.0 mm 0.00 in0.0 mm 0.00 in0.0 mm
11:35 AM 85.6°F29.8°C 71.3°F21.8°C 63% 8.4 mph SSE13.5 kmh SSE 15.0 mph24.1 kmh 29.43 in996.6 mb 0.00 in0.0 mm 0.00 in0.0 mm 0.00 in0.0 mm
11:40 AM 85.5°F29.7°C 71.3°F21.8°C 63% 6.4 mph SE10.3 kmh SE 12.3 mph19.8 kmh 29.43 in996.6 mb 0.00 in0.0 mm 0.00 in0.0 mm 0.00 in0.0 mm
11:45 AM 85.5°F29.7°C 70.1°F21.2°C 60% 3.5 mph S5.6 kmh S 12.3 mph19.8 kmh 29.43 in996.6 mb 0.00 in0.0 mm 0.00 in0.0 mm 0.00 in0.0 mm
11:50 AM 85.5°F29.7°C 69.7°F20.9°C 59% 6.4 mph SSW10.3 kmh SSW 9.8 mph15.8 kmh 29.44 in997.0 mb 0.00 in0.0 mm 0.00 in0.0 mm 0.00 in0.0 mm
11:55 AM 85.3°F29.6°C 70.0°F21.1°C 60% 5.0 mph SW8.0 kmh SW 9.8 mph15.8 kmh 29.43 in996.6 mb 0.00 in0.0 mm 0.00 in0.0 mm 0.00 in0.0 mm
12:00 PM 85.3°F29.6°C 70.3°F21.3°C 61% 4.6 mph SW7.4 kmh SW 9.8 mph15.8 kmh 29.43 in996.6 mb 0.00 in0.0 mm 0.00 in0.0 mm 0.00 in0.0 mm
12:05 PM 85.4°F29.7°C 68.7°F20.4°C 58% 6.3 mph SSE10.1 kmh SSE 9.8 mph15.8 kmh 29.42 in996.3 mb 0.00 in0.0 mm 0.00 in0.0 mm 0.00 in0.0 mm
12:10 PM 85.6°F29.8°C 67.7°F19.8°C 55% 8.4 mph S13.5 kmh S 19.9 mph32.0 kmh 29.42 in996.3 mb 0.00 in0.0 mm 0.00 in0.0 mm 0.00 in0.0 mm
12:15 PM 85.8°F29.9°C 69.1°F20.6°C 58% 5.2 mph SSE8.4 kmh SSE 9.8 mph15.8 kmh 29.42 in996.3 mb 0.00 in0.0 mm 0.00 in0.0 mm 0.00 in0.0 mm
12:20 PM 85.9°F29.9°C 68.0°F20.0°C 55% 9.4 mph S15.1 kmh S 19.9 mph32.0 kmh 29.42 in996.3 mb 0.00 in0.0 mm 0.00 in0.0 mm 0.00 in0.0 mm
12:25 PM 86.2°F30.1°C 66.4°F19.1°C 52% 11.1 mph SSE17.9 kmh SSE 24.8 mph39.9 kmh 29.42 in996.3 mb 0.00 in0.0 mm 0.00 in0.0 mm 0.00 in0.0 mm
12:30 PM 86.5°F30.3°C 66.7°F19.3°C 52% 14.1 mph SSE22.7 kmh SSE 22.4 mph36.0 kmh 29.42 in996.3 mb 0.00 in0.0 mm 0.00 in0.0 mm 0.00 in0.0 mm
12:35 PM 87.9°F31.1°C 67.9°F19.9°C 52% 4.0 mph SSW6.4 kmh SSW 9.8 mph15.8 kmh 29.41 in995.9 mb 0.00 in0.0 mm 0.00 in0.0 mm 0.00 in0.0 mm
12:40 PM 88.1°F31.2°C 67.1°F19.5°C 50% 9.1 mph SSE14.6 kmh SSE 15.0 mph24.1 kmh 29.41 in995.9 mb 0.00 in0.0 mm 0.00 in0.0 mm 0.00 in0.0 mm
12:45 PM 88.2°F31.2°C 67.5°F19.7°C 50% 8.1 mph SSE13.0 kmh SSE 15.0 mph24.1 kmh 29.41 in995.9 mb 0.00 in0.0 mm 0.00 in0.0 mm 0.00 in0.0 mm
12:50 PM 88.3°F31.3°C 66.5°F19.2°C 49% 9.8 mph SSE15.8 kmh SSE 19.9 mph32.0 kmh 29.41 in995.9 mb 0.00 in0.0 mm 0.00 in0.0 mm 0.00 in0.0 mm
12:55 PM 89.0°F31.7°C 67.2°F19.6°C 49% 6.0 mph S9.7 kmh S 15.0 mph24.1 kmh 29.41 in995.9 mb 0.00 in0.0 mm 0.00 in0.0 mm 0.00 in0.0 mm
01:00 PM 89.1°F31.7°C 66.7°F19.3°C 48% 9.2 mph S14.8 kmh S 17.4 mph28.0 kmh 29.41 in995.9 mb 0.00 in0.0 mm 0.00 in0.0 mm 0.00 in0.0 mm
01:05 PM 89.2°F31.8°C 66.9°F19.4°C 48% 11.9 mph S19.2 kmh S 22.4 mph36.0 kmh 29.40 in995.6 mb 0.00 in0.0 mm 0.00 in0.0 mm 0.00 in0.0 mm
01:10 PM 89.2°F31.8°C 68.2°F20.1°C 50% 10.7 mph S17.2 kmh S 19.9 mph32.0 kmh 29.41 in995.9 mb 0.00 in0.0 mm 0.00 in0.0 mm 0.00 in0.0 mm
01:15 PM 88.5°F31.4°C 67.6°F19.8°C 50% 10.4 mph SSE16.7 kmh SSE 17.4 mph28.0 kmh 29.40 in995.6 mb 0.00 in0.0 mm 0.00 in0.0 mm 0.00 in0.0 mm
01:20 PM 88.3°F31.3°C 67.4°F19.7°C 50% 12.7 mph SSE20.4 kmh SSE 22.4 mph36.0 kmh 29.40 in995.6 mb 0.00 in0.0 mm 0.00 in0.0 mm 0.00 in0.0 mm
01:25 PM 88.3°F31.3°C 67.3°F19.6°C 50% 11.8 mph SSE19.0 kmh SSE 19.9 mph32.0 kmh 29.39 in995.3 mb 0.00 in0.0 mm 0.00 in0.0 mm 0.00 in0.0 mm
01:30 PM 88.3°F31.3°C 67.0°F19.4°C 50% 9.9 mph SSE15.9 kmh SSE 17.4 mph28.0 kmh 29.39 in995.3 mb 0.00 in0.0 mm 0.00 in0.0 mm 0.00 in0.0 mm
01:35 PM 89.4°F31.9°C 67.1°F19.5°C 48% 15.0 mph SE24.1 kmh SE 19.9 mph32.0 kmh 29.39 in995.3 mb 0.00 in0.0 mm 0.00 in0.0 mm 0.00 in0.0 mm
01:40 PM 89.2°F31.8°C 66.8°F19.3°C 48% 11.2 mph S18.0 kmh S 24.8 mph39.9 kmh 29.39 in995.3 mb 0.00 in0.0 mm 0.00 in0.0 mm 0.00 in0.0 mm
01:45 PM 89.2°F31.8°C 66.0°F18.9°C 47% 10.8 mph S17.4 kmh S 19.9 mph32.0 kmh 29.38 in994.9 mb 0.00 in0.0 mm 0.00 in0.0 mm 0.00 in0.0 mm
01:50 PM 89.2°F31.8°C 66.0°F18.9°C 47% 9.9 mph SSE15.9 kmh SSE 17.4 mph28.0 kmh 29.38 in994.9 mb 0.00 in0.0 mm 0.00 in0.0 mm 0.00 in0.0 mm
01:55 PM 88.9°F31.6°C 66.3°F19.1°C 47% 12.6 mph SSE20.3 kmh SSE 19.9 mph32.0 kmh 29.38 in994.9 mb 0.00 in0.0 mm 0.00 in0.0 mm 0.00 in0.0 mm
02:00 PM 88.5°F31.4°C 65.6°F18.7°C 47% 9.5 mph SSE15.3 kmh SSE 22.4 mph36.0 kmh 29.38 in994.9 mb 0.00 in0.0 mm 0.00 in0.0 mm 0.00 in0.0 mm
02:05 PM 88.7°F31.5°C 64.5°F18.1°C 45% 6.2 mph SW10.0 kmh SW 9.8 mph15.8 kmh 29.38 in994.9 mb 0.00 in0.0 mm 0.00 in0.0 mm 0.00 in0.0 mm
02:10 PM 88.8°F31.6°C 64.3°F17.9°C 44% 9.0 mph SE14.5 kmh SE 19.9 mph32.0 kmh 29.38 in994.9 mb 0.00 in0.0 mm 0.00 in0.0 mm 0.00 in0.0 mm
02:15 PM 89.7°F32.1°C 64.2°F17.9°C 43% 8.8 mph S14.2 kmh S 17.4 mph28.0 kmh 29.38 in994.9 mb 0.00 in0.0 mm 0.00 in0.0 mm 0.00 in0.0 mm
02:20 PM 89.8°F32.1°C 63.2°F17.3°C 41% 10.4 mph S16.7 kmh S 17.4 mph28.0 kmh 29.37 in994.6 mb 0.00 in0.0 mm 0.00 in0.0 mm 0.00 in0.0 mm
02:25 PM 89.8°F32.1°C 63.1°F17.3°C 41% 10.3 mph S16.6 kmh S 22.4 mph36.0 kmh 29.37 in994.6 mb 0.00 in0.0 mm 0.00 in0.0 mm 0.00 in0.0 mm
02:30 PM 89.8°F32.1°C 63.0°F17.2°C 41% 8.2 mph S13.2 kmh S 19.9 mph32.0 kmh 29.37 in994.6 mb 0.00 in0.0 mm 0.00 in0.0 mm 0.00 in0.0 mm
02:35 PM 90.8°F32.7°C 63.8°F17.7°C 41% 4.6 mph E7.4 kmh E 9.8 mph15.8 kmh 29.36 in994.2 mb 0.00 in0.0 mm 0.00 in0.0 mm 0.00 in0.0 mm
02:40 PM 91.0°F32.8°C 63.3°F17.4°C 40% 9.6 mph SSE15.4 kmh SSE 19.9 mph32.0 kmh 29.37 in994.6 mb 0.00 in0.0 mm 0.00 in0.0 mm 0.00 in0.0 mm
02:45 PM 91.1°F32.8°C 62.2°F16.8°C 38% 3.7 mph SW6.0 kmh SW 12.3 mph19.8 kmh 29.37 in994.6 mb 0.00 in0.0 mm 0.00 in0.0 mm 0.00 in0.0 mm
02:50 PM 91.2°F32.9°C 62.9°F17.2°C 39% 9.6 mph S15.4 kmh S 19.9 mph32.0 kmh 29.37 in994.6 mb 0.00 in0.0 mm 0.00 in0.0 mm 0.00 in0.0 mm
02:55 PM 91.3°F32.9°C 62.5°F16.9°C 39% 7.2 mph SSE11.6 kmh SSE 17.4 mph28.0 kmh 29.37 in994.6 mb 0.00 in0.0 mm 0.00 in0.0 mm 0.00 in0.0 mm
03:00 PM 91.4°F33.0°C 62.5°F16.9°C 38% 7.5 mph S12.1 kmh S 9.8 mph15.8 kmh 29.37 in994.6 mb 0.00 in0.0 mm 0.00 in0.0 mm 0.00 in0.0 mm
03:05 PM 91.5°F33.1°C 61.5°F16.4°C 37% 6.4 mph S10.3 kmh S 12.3 mph19.8 kmh 29.37 in994.6 mb 0.00 in0.0 mm 0.00 in0.0 mm 0.00 in0.0 mm
03:10 PM 91.6°F33.1°C 61.3°F16.3°C 37% 5.9 mph S9.5 kmh S 15.0 mph24.1 kmh 29.36 in994.2 mb 0.00 in0.0 mm 0.00 in0.0 mm 0.00 in0.0 mm
03:15 PM 91.9°F33.3°C 60.5°F15.8°C 35% 10.2 mph SSE16.4 kmh SSE 17.4 mph28.0 kmh 29.36 in994.2 mb 0.00 in0.0 mm 0.00 in0.0 mm 0.00 in0.0 mm
03:20 PM 92.1°F33.4°C 61.3°F16.3°C 36% 4.3 mph SW6.9 kmh SW 12.3 mph19.8 kmh 29.36 in994.2 mb 0.00 in0.0 mm 0.00 in0.0 mm 0.00 in0.0 mm
03:25 PM 92.1°F33.4°C 60.9°F16.1°C 36% 9.5 mph S15.3 kmh S 19.9 mph32.0 kmh 29.36 in994.2 mb 0.00 in0.0 mm 0.00 in0.0 mm 0.00 in0.0 mm
03:30 PM 92.2°F33.4°C 61.2°F16.2°C 36% 7.6 mph S12.2 kmh S 19.9 mph32.0 kmh 29.36 in994.2 mb 0.00 in0.0 mm 0.00 in0.0 mm 0.00 in0.0 mm
03:35 PM 92.5°F33.6°C 61.3°F16.3°C 36% 3.9 mph S6.3 kmh S 9.8 mph15.8 kmh 29.36 in994.2 mb 0.00 in0.0 mm 0.00 in0.0 mm 0.00 in0.0 mm
03:40 PM 92.8°F33.8°C 60.3°F15.7°C 34% 7.6 mph S12.2 kmh S 17.4 mph28.0 kmh 29.36 in994.2 mb 0.00 in0.0 mm 0.00 in0.0 mm 0.00 in0.0 mm
03:45 PM 92.8°F33.8°C 61.0°F16.1°C 35% 8.0 mph S12.9 kmh S 22.4 mph36.0 kmh 29.36 in994.2 mb 0.00 in0.0 mm 0.00 in0.0 mm 0.00 in0.0 mm
03:50 PM 92.6°F33.7°C 61.1°F16.2°C 35% 5.2 mph S8.4 kmh S 7.4 mph11.9 kmh 29.36 in994.2 mb 0.00 in0.0 mm 0.00 in0.0 mm 0.00 in0.0 mm
03:55 PM 92.2°F33.4°C 61.1°F16.2°C 36% 4.5 mph S7.2 kmh S 7.4 mph11.9 kmh 29.36 in994.2 mb 0.00 in0.0 mm 0.00 in0.0 mm 0.00 in0.0 mm
04:00 PM 91.6°F33.1°C 60.8°F16.0°C 36% 4.7 mph S7.6 kmh S 7.4 mph11.9 kmh 29.36 in994.2 mb 0.00 in0.0 mm 0.00 in0.0 mm 0.00 in0.0 mm
04:05 PM 91.6°F33.1°C 61.6°F16.4°C 37% 6.2 mph S10.0 kmh S 12.3 mph19.8 kmh 29.36 in994.2 mb 0.00 in0.0 mm 0.00 in0.0 mm 0.00 in0.0 mm
04:10 PM 91.4°F33.0°C 62.2°F16.8°C 38% 6.4 mph SSE10.3 kmh SSE 12.3 mph19.8 kmh 29.35 in993.9 mb 0.00 in0.0 mm 0.00 in0.0 mm 0.00 in0.0 mm
04:15 PM 91.4°F33.0°C 62.0°F16.7°C 38% 2.0 mph SSW3.2 kmh SSW 4.9 mph7.9 kmh 29.35 in993.9 mb 0.00 in0.0 mm 0.00 in0.0 mm 0.00 in0.0 mm
04:20 PM 91.4°F33.0°C 62.0°F16.7°C 38% 2.3 mph S3.7 kmh S 7.4 mph11.9 kmh 29.35 in993.9 mb 0.00 in0.0 mm 0.00 in0.0 mm 0.00 in0.0 mm
04:25 PM 91.4°F33.0°C 61.3°F16.3°C 37% 4.0 mph S6.4 kmh S 9.8 mph15.8 kmh 29.35 in993.9 mb 0.00 in0.0 mm 0.00 in0.0 mm 0.00 in0.0 mm
04:30 PM 91.4°F33.0°C 60.6°F15.9°C 36% 4.9 mph S7.9 kmh S 12.3 mph19.8 kmh 29.36 in994.2 mb 0.00 in0.0 mm 0.00 in0.0 mm 0.00 in0.0 mm
04:35 PM 91.4°F33.0°C 60.6°F15.9°C 36% 7.2 mph SSE11.6 kmh SSE 12.3 mph19.8 kmh 29.35 in993.9 mb 0.00 in0.0 mm 0.00 in0.0 mm 0.00 in0.0 mm
04:40 PM 91.4°F33.0°C 60.6°F15.9°C 36% 5.5 mph S8.9 kmh S 17.4 mph28.0 kmh 29.35 in993.9 mb 0.00 in0.0 mm 0.00 in0.0 mm 0.00 in0.0 mm
04:45 PM 91.4°F33.0°C 60.3°F15.7°C 36% 3.7 mph S6.0 kmh S 7.4 mph11.9 kmh 29.35 in993.9 mb 0.00 in0.0 mm 0.00 in0.0 mm 0.00 in0.0 mm
04:50 PM 91.4°F33.0°C 59.9°F15.5°C 35% 3.4 mph SW5.5 kmh SW 7.4 mph11.9 kmh 29.35 in993.9 mb 0.00 in0.0 mm 0.00 in0.0 mm 0.00 in0.0 mm
04:55 PM 91.5°F33.1°C 59.9°F15.5°C 35% 4.0 mph S6.4 kmh S 12.3 mph19.8 kmh 29.34 in993.6 mb 0.00 in0.0 mm 0.00 in0.0 mm 0.00 in0.0 mm
05:00 PM 91.6°F33.1°C 60.1°F15.6°C 35% 3.5 mph S5.6 kmh S 9.8 mph15.8 kmh 29.35 in993.9 mb 0.00 in0.0 mm 0.00 in0.0 mm 0.00 in0.0 mm
05:05 PM 91.6°F33.1°C 60.0°F15.6°C 35% 7.6 mph S12.2 kmh S 15.0 mph24.1 kmh 29.34 in993.6 mb 0.00 in0.0 mm 0.00 in0.0 mm 0.00 in0.0 mm
05:10 PM 91.6°F33.1°C 60.0°F15.6°C 35% 5.1 mph S8.2 kmh S 12.3 mph19.8 kmh 29.34 in993.6 mb 0.00 in0.0 mm 0.00 in0.0 mm 0.00 in0.0 mm
05:15 PM 91.7°F33.2°C 60.1°F15.6°C 35% 6.3 mph SW10.1 kmh SW 12.3 mph19.8 kmh 29.34 in993.6 mb 0.00 in0.0 mm 0.00 in0.0 mm 0.00 in0.0 mm
05:20 PM 91.9°F33.3°C 60.0°F15.6°C 35% 3.5 mph S5.6 kmh S 7.4 mph11.9 kmh 29.34 in993.6 mb 0.00 in0.0 mm 0.00 in0.0 mm 0.00 in0.0 mm
05:25 PM 91.9°F33.3°C 59.5°F15.3°C 34% 4.9 mph S7.9 kmh S 9.8 mph15.8 kmh 29.34 in993.6 mb 0.00 in0.0 mm 0.00 in0.0 mm 0.00 in0.0 mm
05:30 PM 91.9°F33.3°C 59.8°F15.4°C 34% 3.6 mph S5.8 kmh S 9.8 mph15.8 kmh 29.34 in993.6 mb 0.00 in0.0 mm 0.00 in0.0 mm 0.00 in0.0 mm
05:35 PM 92.0°F33.3°C 60.2°F15.7°C 35% 5.4 mph S8.7 kmh S 12.3 mph19.8 kmh 29.34 in993.6 mb 0.00 in0.0 mm 0.00 in0.0 mm 0.00 in0.0 mm
05:40 PM 92.4°F33.6°C 60.4°F15.8°C 35% 4.2 mph S6.8 kmh S 7.4 mph11.9 kmh 29.33 in993.2 mb 0.00 in0.0 mm 0.00 in0.0 mm 0.00 in0.0 mm
05:45 PM 92.4°F33.6°C 60.7°F15.9°C 35% 6.1 mph SSE9.8 kmh SSE 12.3 mph19.8 kmh 29.33 in993.2 mb 0.00 in0.0 mm 0.00 in0.0 mm 0.00 in0.0 mm
05:50 PM 92.3°F33.5°C 60.8°F16.0°C 35% 4.2 mph S6.8 kmh S 7.4 mph11.9 kmh 29.33 in993.2 mb 0.00 in0.0 mm 0.00 in0.0 mm 0.00 in0.0 mm
05:55 PM 92.1°F33.4°C 61.3°F16.3°C 36% 3.4 mph SW5.5 kmh SW 4.9 mph7.9 kmh 29.33 in993.2 mb 0.00 in0.0 mm 0.00 in0.0 mm 0.00 in0.0 mm
06:00 PM 91.6°F33.1°C 60.2°F15.7°C 35% 2.7 mph S4.3 kmh S 4.9 mph7.9 kmh 29.32 in992.9 mb 0.00 in0.0 mm 0.00 in0.0 mm 0.00 in0.0 mm
06:05 PM 91.6°F33.1°C 60.2°F15.7°C 35% 2.6 mph SW4.2 kmh SW 7.4 mph11.9 kmh 29.33 in993.2 mb 0.00 in0.0 mm 0.00 in0.0 mm 0.00 in0.0 mm
06:10 PM 91.7°F33.2°C 59.3°F15.2°C 34% 4.0 mph SW6.4 kmh SW 9.8 mph15.8 kmh 29.33 in993.2 mb 0.00 in0.0 mm 0.00 in0.0 mm 0.00 in0.0 mm
06:15 PM 91.8°F33.2°C 59.4°F15.2°C 34% 3.7 mph S6.0 kmh S 9.8 mph15.8 kmh 29.32 in992.9 mb 0.00 in0.0 mm 0.00 in0.0 mm 0.00 in0.0 mm
06:20 PM 92.3°F33.5°C 60.0°F15.6°C 34% 3.9 mph SSW6.3 kmh SSW 9.8 mph15.8 kmh 29.31 in992.6 mb 0.00 in0.0 mm 0.00 in0.0 mm 0.00 in0.0 mm
06:25 PM 92.4°F33.6°C 60.1°F15.6°C 34% 2.5 mph SSE4.0 kmh SSE 7.4 mph11.9 kmh 29.32 in992.9 mb 0.00 in0.0 mm 0.00 in0.0 mm 0.00 in0.0 mm
06:30 PM 92.5°F33.6°C 60.2°F15.7°C 34% 4.1 mph SE6.6 kmh SE 7.4 mph11.9 kmh 29.31 in992.6 mb 0.00 in0.0 mm 0.00 in0.0 mm 0.00 in0.0 mm
06:35 PM 92.5°F33.6°C 60.1°F15.6°C 34% 4.7 mph SSE7.6 kmh SSE 7.4 mph11.9 kmh 29.31 in992.6 mb 0.00 in0.0 mm 0.00 in0.0 mm 0.00 in0.0 mm
06:40 PM 92.3°F33.5°C 59.8°F15.4°C 34% 2.9 mph SE4.7 kmh SE 7.4 mph11.9 kmh 29.31 in992.6 mb 0.00 in0.0 mm 0.00 in0.0 mm 0.00 in0.0 mm
06:45 PM 92.5°F33.6°C 59.8°F15.4°C 34% 2.1 mph S3.4 kmh S 4.9 mph7.9 kmh 29.31 in992.6 mb 0.00 in0.0 mm 0.00 in0.0 mm 0.00 in0.0 mm
06:50 PM 92.5°F33.6°C 59.9°F15.5°C 34% 1.0 mph S1.6 kmh S 4.9 mph7.9 kmh 29.31 in992.6 mb 0.00 in0.0 mm 0.00 in0.0 mm 0.00 in0.0 mm
06:55 PM 92.7°F33.7°C 60.2°F15.7°C 34% 3.0 mph SSW4.8 kmh SSW 9.8 mph15.8 kmh 29.31 in992.6 mb 0.00 in0.0 mm 0.00 in0.0 mm 0.00 in0.0 mm
07:00 PM 92.7°F33.7°C 59.8°F15.4°C 34% 3.9 mph S6.3 kmh S 7.4 mph11.9 kmh 29.31 in992.6 mb 0.00 in0.0 mm 0.00 in0.0 mm 0.00 in0.0 mm
07:05 PM 92.7°F33.7°C 59.8°F15.4°C 34% 6.8 mph S10.9 kmh S 12.3 mph19.8 kmh 29.31 in992.6 mb 0.00 in0.0 mm 0.00 in0.0 mm 0.00 in0.0 mm
07:10 PM 92.6°F33.7°C 59.3°F15.2°C 33% 6.8 mph S10.9 kmh S 15.0 mph24.1 kmh 29.31 in992.6 mb 0.00 in0.0 mm 0.00 in0.0 mm 0.00 in0.0 mm
07:15 PM 92.5°F33.6°C 59.1°F15.1°C 33% 5.4 mph S8.7 kmh S 9.8 mph15.8 kmh 29.30 in992.2 mb 0.00 in0.0 mm 0.00 in0.0 mm 0.00 in0.0 mm
07:20 PM 91.8°F33.2°C 58.9°F14.9°C 33% 5.5 mph S8.9 kmh S 12.3 mph19.8 kmh 29.31 in992.6 mb 0.00 in0.0 mm 0.00 in0.0 mm 0.00 in0.0 mm
07:25 PM 91.8°F33.2°C 59.4°F15.2°C 34% 2.1 mph S3.4 kmh S 7.4 mph11.9 kmh 29.30 in992.2 mb 0.00 in0.0 mm 0.00 in0.0 mm 0.00 in0.0 mm
07:30 PM 91.7°F33.2°C 59.3°F15.2°C 34% 6.8 mph SSE10.9 kmh SSE 9.8 mph15.8 kmh 29.30 in992.2 mb 0.00 in0.0 mm 0.00 in0.0 mm 0.00 in0.0 mm
07:35 PM 91.6°F33.1°C 58.8°F14.9°C 34% 7.6 mph SSE12.2 kmh SSE 15.0 mph24.1 kmh 29.30 in992.2 mb 0.00 in0.0 mm 0.00 in0.0 mm 0.00 in0.0 mm
07:40 PM 91.1°F32.8°C 58.6°F14.8°C 34% 4.7 mph S7.6 kmh S 12.3 mph19.8 kmh 29.30 in992.2 mb 0.00 in0.0 mm 0.00 in0.0 mm 0.00 in0.0 mm
07:45 PM 91.0°F32.8°C 58.7°F14.8°C 34% 3.9 mph S6.3 kmh S 12.3 mph19.8 kmh 29.31 in992.6 mb 0.00 in0.0 mm 0.00 in0.0 mm 0.00 in0.0 mm
07:50 PM 90.9°F32.7°C 58.6°F14.8°C 34% 5.7 mph S9.2 kmh S 12.3 mph19.8 kmh 29.31 in992.6 mb 0.00 in0.0 mm 0.00 in0.0 mm 0.00 in0.0 mm
07:55 PM 90.9°F32.7°C 58.9°F14.9°C 34% 2.6 mph S4.2 kmh S 4.9 mph7.9 kmh 29.31 in992.6 mb 0.00 in0.0 mm 0.00 in0.0 mm 0.00 in0.0 mm
08:00 PM 90.2°F32.3°C 58.0°F14.4°C 34% 4.5 mph SSE7.2 kmh SSE 7.4 mph11.9 kmh 29.30 in992.2 mb 0.00 in0.0 mm 0.00 in0.0 mm 0.00 in0.0 mm
08:05 PM 90.1°F32.3°C 58.4°F14.7°C 35% 2.2 mph SSE3.5 kmh SSE 4.9 mph7.9 kmh 29.31 in992.6 mb 0.00 in0.0 mm 0.00 in0.0 mm 0.00 in0.0 mm
08:10 PM 90.1°F32.3°C 58.4°F14.7°C 35% 3.5 mph S5.6 kmh S 7.4 mph11.9 kmh 29.31 in992.6 mb 0.00 in0.0 mm 0.00 in0.0 mm 0.00 in0.0 mm
08:15 PM 90.0°F32.2°C 57.8°F14.3°C 34% 3.9 mph SSE6.3 kmh SSE 7.4 mph11.9 kmh 29.31 in992.6 mb 0.00 in0.0 mm 0.00 in0.0 mm 0.00 in0.0 mm
08:20 PM 89.4°F31.9°C 57.5°F14.2°C 34% 4.5 mph S7.2 kmh S 9.8 mph15.8 kmh 29.31 in992.6 mb 0.00 in0.0 mm 0.00 in0.0 mm 0.00 in0.0 mm
08:25 PM 89.4°F31.9°C 57.5°F14.2°C 34% 4.8 mph SE7.7 kmh SE 7.4 mph11.9 kmh 29.31 in992.6 mb 0.00 in0.0 mm 0.00 in0.0 mm 0.00 in0.0 mm
08:30 PM 89.4°F31.9°C 58.1°F14.5°C 35% 6.3 mph SE10.1 kmh SE 9.8 mph15.8 kmh 29.31 in992.6 mb 0.00 in0.0 mm 0.00 in0.0 mm 0.00 in0.0 mm
08:35 PM 89.4°F31.9°C 58.1°F14.5°C 35% 3.4 mph SSE5.5 kmh SSE 7.4 mph11.9 kmh 29.31 in992.6 mb 0.00 in0.0 mm 0.00 in0.0 mm 0.00 in0.0 mm
08:40 PM 88.6°F31.4°C 57.6°F14.2°C 35% 4.4 mph SSE7.1 kmh SSE 7.4 mph11.9 kmh 29.31 in992.6 mb 0.00 in0.0 mm 0.00 in0.0 mm 0.00 in0.0 mm
08:45 PM 88.4°F31.3°C 58.0°F14.4°C 36% 5.2 mph SE8.4 kmh SE 7.4 mph11.9 kmh 29.31 in992.6 mb 0.00 in0.0 mm 0.00 in0.0 mm 0.00 in0.0 mm
08:50 PM 88.3°F31.3°C 57.9°F14.4°C 36% 3.4 mph SSE5.5 kmh SSE 7.4 mph11.9 kmh 29.32 in992.9 mb 0.00 in0.0 mm 0.00 in0.0 mm 0.00 in0.0 mm
08:55 PM 88.3°F31.3°C 58.7°F14.8°C 37% 4.7 mph SE7.6 kmh SE 7.4 mph11.9 kmh 29.31 in992.6 mb 0.00 in0.0 mm 0.00 in0.0 mm 0.00 in0.0 mm
09:00 PM 88.1°F31.2°C 58.5°F14.7°C 37% 4.5 mph SSE7.2 kmh SSE 7.4 mph11.9 kmh 29.31 in992.6 mb 0.00 in0.0 mm 0.00 in0.0 mm 0.00 in0.0 mm
09:05 PM 87.8°F31.0°C 59.0°F15.0°C 38% 4.7 mph SSE7.6 kmh SSE 7.4 mph11.9 kmh 29.31 in992.6 mb 0.00 in0.0 mm 0.00 in0.0 mm 0.00 in0.0 mm
09:10 PM 87.8°F31.0°C 60.4°F15.8°C 40% 5.2 mph SSE8.4 kmh SSE 9.8 mph15.8 kmh 29.31 in992.6 mb 0.00 in0.0 mm 0.00 in0.0 mm 0.00 in0.0 mm
09:15 PM 87.8°F31.0°C 60.3°F15.7°C 40% 8.4 mph SSE13.5 kmh SSE 12.3 mph19.8 kmh 29.32 in992.9 mb 0.00 in0.0 mm 0.00 in0.0 mm 0.00 in0.0 mm
09:20 PM 87.6°F30.9°C 60.8°F16.0°C 41% 5.0 mph SSE8.0 kmh SSE 9.8 mph15.8 kmh 29.32 in992.9 mb 0.00 in0.0 mm 0.00 in0.0 mm 0.00 in0.0 mm
09:25 PM 87.4°F30.8°C 60.7°F15.9°C 41% 5.4 mph SSE8.7 kmh SSE 12.3 mph19.8 kmh 29.31 in992.6 mb 0.00 in0.0 mm 0.00 in0.0 mm 0.00 in0.0 mm
09:30 PM 87.3°F30.7°C 61.2°F16.2°C 42% 5.8 mph S9.3 kmh S 7.4 mph11.9 kmh 29.31 in992.6 mb 0.00 in0.0 mm 0.00 in0.0 mm 0.00 in0.0 mm
09:35 PM 87.3°F30.7°C 61.4°F16.3°C 42% 7.4 mph S11.9 kmh S 12.3 mph19.8 kmh 29.32 in992.9 mb 0.00 in0.0 mm 0.00 in0.0 mm 0.00 in0.0 mm
09:40 PM 86.9°F30.5°C 61.0°F16.1°C 42% 6.6 mph SSE10.6 kmh SSE 17.4 mph28.0 kmh 29.32 in992.9 mb 0.00 in0.0 mm 0.00 in0.0 mm 0.00 in0.0 mm
09:45 PM 86.7°F30.4°C 60.8°F16.0°C 42% 8.8 mph SSE14.2 kmh SSE 12.3 mph19.8 kmh 29.32 in992.9 mb 0.00 in0.0 mm 0.00 in0.0 mm 0.00 in0.0 mm
09:50 PM 86.7°F30.4°C 60.8°F16.0°C 42% 9.4 mph SSE15.1 kmh SSE 19.9 mph32.0 kmh 29.32 in992.9 mb 0.00 in0.0 mm 0.00 in0.0 mm 0.00 in0.0 mm
09:55 PM 86.6°F30.3°C 60.8°F16.0°C 42% 7.7 mph S12.4 kmh S 15.0 mph24.1 kmh 29.32 in992.9 mb 0.00 in0.0 mm 0.00 in0.0 mm 0.00 in0.0 mm
10:00 PM 86.5°F30.3°C 60.6°F15.9°C 42% 11.1 mph SSE17.9 kmh SSE 19.9 mph32.0 kmh 29.32 in992.9 mb 0.00 in0.0 mm 0.00 in0.0 mm 0.00 in0.0 mm
10:05 PM 86.5°F30.3°C 60.6°F15.9°C 42% 9.8 mph S15.8 kmh S 15.0 mph24.1 kmh 29.32 in992.9 mb 0.00 in0.0 mm 0.00 in0.0 mm 0.00 in0.0 mm
10:10 PM 86.5°F30.3°C 60.6°F15.9°C 42% 6.2 mph SSE10.0 kmh SSE 12.3 mph19.8 kmh 29.32 in992.9 mb 0.00 in0.0 mm 0.00 in0.0 mm 0.00 in0.0 mm
10:15 PM 86.5°F30.3°C 60.6°F15.9°C 42% 9.5 mph S15.3 kmh S 12.3 mph19.8 kmh 29.32 in992.9 mb 0.00 in0.0 mm 0.00 in0.0 mm 0.00 in0.0 mm
10:20 PM 86.3°F30.2°C 60.5°F15.8°C 42% 6.7 mph S10.8 kmh S 9.8 mph15.8 kmh 29.32 in992.9 mb 0.00 in0.0 mm 0.00 in0.0 mm 0.00 in0.0 mm
10:25 PM 86.0°F30.0°C 60.2°F15.7°C 42% 8.1 mph SSE13.0 kmh SSE 12.3 mph19.8 kmh 29.32 in992.9 mb 0.00 in0.0 mm 0.00 in0.0 mm 0.00 in0.0 mm
10:30 PM 86.0°F30.0°C 60.3°F15.7°C 42% 8.7 mph S14.0 kmh S 17.4 mph28.0 kmh 29.32 in992.9 mb 0.00 in0.0 mm 0.00 in0.0 mm 0.00 in0.0 mm
10:35 PM 86.0°F30.0°C 61.3°F16.3°C 44% 7.0 mph S11.3 kmh S 15.0 mph24.1 kmh 29.32 in992.9 mb 0.00 in0.0 mm 0.00 in0.0 mm 0.00 in0.0 mm
10:40 PM 85.5°F29.7°C 61.1°F16.2°C 44% 6.7 mph SSE10.8 kmh SSE 12.3 mph19.8 kmh 29.32 in992.9 mb 0.00 in0.0 mm 0.00 in0.0 mm 0.00 in0.0 mm
10:45 PM 85.1°F29.5°C 61.1°F16.2°C 45% 7.6 mph SE12.2 kmh SE 12.3 mph19.8 kmh 29.33 in993.2 mb 0.00 in0.0 mm 0.00 in0.0 mm 0.00 in0.0 mm
10:50 PM 84.9°F29.4°C 61.3°F16.3°C 45% 8.6 mph ESE13.8 kmh ESE 15.0 mph24.1 kmh 29.33 in993.2 mb 0.00 in0.0 mm 0.00 in0.0 mm 0.00 in0.0 mm
10:55 PM 84.9°F29.4°C 62.0°F16.7°C 46% 5.8 mph SSE9.3 kmh SSE 9.8 mph15.8 kmh 29.33 in993.2 mb 0.00 in0.0 mm 0.00 in0.0 mm 0.00 in0.0 mm
11:00 PM 84.3°F29.1°C 62.9°F17.2°C 49% 5.9 mph SE9.5 kmh SE 12.3 mph19.8 kmh 29.33 in993.2 mb 0.00 in0.0 mm 0.00 in0.0 mm 0.00 in0.0 mm
11:05 PM 83.7°F28.7°C 63.3°F17.4°C 50% 5.3 mph SE8.5 kmh SE 12.3 mph19.8 kmh 29.33 in993.2 mb 0.00 in0.0 mm 0.00 in0.0 mm 0.00 in0.0 mm
11:10 PM 83.7°F28.7°C 64.2°F17.9°C 52% 6.9 mph SE11.1 kmh SE 15.0 mph24.1 kmh 29.33 in993.2 mb 0.00 in0.0 mm 0.00 in0.0 mm 0.00 in0.0 mm
11:15 PM 83.7°F28.7°C 64.4°F18.0°C 52% 5.2 mph SSE8.4 kmh SSE 15.0 mph24.1 kmh 29.33 in993.2 mb 0.00 in0.0 mm 0.00 in0.0 mm 0.00 in0.0 mm
11:20 PM 83.4°F28.6°C 64.5°F18.1°C 53% 7.7 mph SE12.4 kmh SE 9.8 mph15.8 kmh 29.33 in993.2 mb 0.00 in0.0 mm 0.00 in0.0 mm 0.00 in0.0 mm
11:25 PM 82.9°F28.3°C 64.5°F18.1°C 54% 10.0 mph SSE16.1 kmh SSE 19.9 mph32.0 kmh 29.33 in993.2 mb 0.00 in0.0 mm 0.00 in0.0 mm 0.00 in0.0 mm
11:30 PM 82.9°F28.3°C 64.6°F18.1°C 54% 8.3 mph SE13.4 kmh SE 15.0 mph24.1 kmh 29.34 in993.6 mb 0.00 in0.0 mm 0.00 in0.0 mm 0.00 in0.0 mm
11:35 PM 82.9°F28.3°C 65.0°F18.3°C 55% 3.9 mph SSE6.3 kmh SSE 7.4 mph11.9 kmh 29.34 in993.6 mb 0.00 in0.0 mm 0.00 in0.0 mm 0.00 in0.0 mm
11:40 PM 82.8°F28.2°C 65.0°F18.3°C 55% 4.8 mph SSE7.7 kmh SSE 9.8 mph15.8 kmh 29.34 in993.6 mb 0.00 in0.0 mm 0.00 in0.0 mm 0.00 in0.0 mm
11:45 PM 82.6°F28.1°C 65.3°F18.5°C 56% 11.5 mph SSE18.5 kmh SSE 17.4 mph28.0 kmh 29.34 in993.6 mb 0.00 in0.0 mm 0.00 in0.0 mm 0.00 in0.0 mm
11:50 PM 82.6°F28.1°C 65.3°F18.5°C 56% 6.6 mph S10.6 kmh S 17.4 mph28.0 kmh 29.34 in993.6 mb 0.00 in0.0 mm 0.00 in0.0 mm 0.00 in0.0 mm
11:55 PM 82.6°F28.1°C 65.3°F18.5°C 56% 7.9 mph S12.7 kmh S 15.0 mph24.1 kmh 29.34 in993.6 mb 0.00 in0.0 mm 0.00 in0.0 mm 0.00 in0.0 mm